sensor_id;sensor_type;location;lat;lon;timestamp;P1;durP1;ratioP1;P2;durP2;ratioP2
45326;SDS011;31062;49.678;24.560;2023-05-18T00:02:23;20.75;;;16.00;;
45326;SDS011;31062;49.678;24.560;2023-05-18T00:05:10;22.15;;;15.32;;
45326;SDS011;31062;49.678;24.560;2023-05-18T00:07:56;23.80;;;17.00;;
45326;SDS011;31062;49.678;24.560;2023-05-18T00:10:41;24.45;;;18.15;;
45326;SDS011;31062;49.678;24.560;2023-05-18T00:13:26;24.20;;;17.77;;
45326;SDS011;31062;49.678;24.560;2023-05-18T00:16:12;23.20;;;17.77;;
45326;SDS011;31062;49.678;24.560;2023-05-18T00:19:00;26.38;;;18.80;;
45326;SDS011;31062;49.678;24.560;2023-05-18T00:21:46;30.20;;;18.42;;
45326;SDS011;31062;49.678;24.560;2023-05-18T00:24:32;24.40;;;18.33;;
45326;SDS011;31062;49.678;24.560;2023-05-18T00:27:21;31.23;;;17.85;;
45326;SDS011;31062;49.678;24.560;2023-05-18T00:30:06;30.67;;;18.58;;
45326;SDS011;31062;49.678;24.560;2023-05-18T00:32:53;18.40;;;15.70;;
45326;SDS011;31062;49.678;24.560;2023-05-18T00:35:39;19.98;;;15.32;;
45326;SDS011;31062;49.678;24.560;2023-05-18T00:38:24;21.42;;;17.00;;
45326;SDS011;31062;49.678;24.560;2023-05-18T00:41:10;23.33;;;17.25;;
45326;SDS011;31062;49.678;24.560;2023-05-18T00:43:57;22.35;;;17.02;;
45326;SDS011;31062;49.678;24.560;2023-05-18T00:46:43;22.35;;;16.48;;
45326;SDS011;31062;49.678;24.560;2023-05-18T00:49:28;18.63;;;15.23;;
45326;SDS011;31062;49.678;24.560;2023-05-18T00:52:14;20.45;;;14.50;;
45326;SDS011;31062;49.678;24.560;2023-05-18T00:55:00;22.05;;;15.95;;
45326;SDS011;31062;49.678;24.560;2023-05-18T00:57:46;23.08;;;15.40;;
45326;SDS011;31062;49.678;24.560;2023-05-18T01:00:32;19.58;;;14.52;;
45326;SDS011;31062;49.678;24.560;2023-05-18T01:03:21;16.80;;;14.77;;
45326;SDS011;31062;49.678;24.560;2023-05-18T01:06:07;19.45;;;14.30;;
45326;SDS011;31062;49.678;24.560;2023-05-18T01:08:54;17.60;;;13.73;;
45326;SDS011;31062;49.678;24.560;2023-05-18T01:11:43;16.55;;;14.02;;
45326;SDS011;31062;49.678;24.560;2023-05-18T01:14:59;18.90;;;12.95;;
45326;SDS011;31062;49.678;24.560;2023-05-18T01:24:49;14.13;;;11.60;;
45326;SDS011;31062;49.678;24.560;2023-05-18T01:27:42;12.70;;;11.43;;
45326;SDS011;31062;49.678;24.560;2023-05-18T01:30:32;13.30;;;11.55;;
45326;SDS011;31062;49.678;24.560;2023-05-18T01:33:20;14.32;;;12.25;;
45326;SDS011;31062;49.678;24.560;2023-05-18T01:36:06;17.08;;;12.30;;
45326;SDS011;31062;49.678;24.560;2023-05-18T01:38:52;15.70;;;13.80;;
45326;SDS011;31062;49.678;24.560;2023-05-18T01:41:58;17.55;;;14.48;;
45326;SDS011;31062;49.678;24.560;2023-05-18T01:44:52;22.20;;;15.32;;
45326;SDS011;31062;49.678;24.560;2023-05-18T01:47:40;23.83;;;17.80;;
45326;SDS011;31062;49.678;24.560;2023-05-18T01:50:30;22.40;;;16.75;;
45326;SDS011;31062;49.678;24.560;2023-05-18T01:53:23;15.63;;;13.88;;
45326;SDS011;31062;49.678;24.560;2023-05-18T01:56:12;18.17;;;15.48;;
45326;SDS011;31062;49.678;24.560;2023-05-18T01:58:58;18.92;;;14.52;;
45326;SDS011;31062;49.678;24.560;2023-05-18T02:01:44;15.95;;;14.13;;
45326;SDS011;31062;49.678;24.560;2023-05-18T02:04:32;13.38;;;11.98;;
45326;SDS011;31062;49.678;24.560;2023-05-18T02:07:19;15.98;;;12.30;;
45326;SDS011;31062;49.678;24.560;2023-05-18T02:10:05;14.23;;;11.30;;
45326;SDS011;31062;49.678;24.560;2023-05-18T02:12:51;12.48;;;10.73;;
45326;SDS011;31062;49.678;24.560;2023-05-18T02:15:38;14.88;;;11.57;;
45326;SDS011;31062;49.678;24.560;2023-05-18T02:18:23;14.43;;;11.50;;
45326;SDS011;31062;49.678;24.560;2023-05-18T02:21:10;16.45;;;12.20;;
45326;SDS011;31062;49.678;24.560;2023-05-18T02:23:57;12.82;;;11.43;;
45326;SDS011;31062;49.678;24.560;2023-05-18T02:26:43;15.25;;;12.60;;
45326;SDS011;31062;49.678;24.560;2023-05-18T02:29:29;14.80;;;13.30;;
45326;SDS011;31062;49.678;24.560;2023-05-18T02:32:15;16.88;;;14.00;;
45326;SDS011;31062;49.678;24.560;2023-05-18T02:35:06;19.63;;;13.65;;
45326;SDS011;31062;49.678;24.560;2023-05-18T02:37:52;20.33;;;14.07;;
45326;SDS011;31062;49.678;24.560;2023-05-18T02:40:41;17.90;;;13.77;;
45326;SDS011;31062;49.678;24.560;2023-05-18T02:43:27;15.68;;;13.25;;
45326;SDS011;31062;49.678;24.560;2023-05-18T02:46:12;16.13;;;12.55;;
45326;SDS011;31062;49.678;24.560;2023-05-18T02:48:58;13.95;;;11.75;;
45326;SDS011;31062;49.678;24.560;2023-05-18T02:51:43;12.68;;;11.35;;
45326;SDS011;31062;49.678;24.560;2023-05-18T02:54:29;12.77;;;11.45;;
45326;SDS011;31062;49.678;24.560;2023-05-18T02:57:16;13.40;;;11.05;;
45326;SDS011;31062;49.678;24.560;2023-05-18T03:00:15;13.35;;;10.95;;
45326;SDS011;31062;49.678;24.560;2023-05-18T03:03:02;14.80;;;12.10;;
45326;SDS011;31062;49.678;24.560;2023-05-18T03:05:48;14.02;;;11.75;;
45326;SDS011;31062;49.678;24.560;2023-05-18T03:08:37;12.00;;;10.05;;
45326;SDS011;31062;49.678;24.560;2023-05-18T03:11:27;12.35;;;10.50;;
45326;SDS011;31062;49.678;24.560;2023-05-18T03:14:12;14.13;;;10.18;;
45326;SDS011;31062;49.678;24.560;2023-05-18T03:16:58;11.43;;;10.23;;
45326;SDS011;31062;49.678;24.560;2023-05-18T03:19:45;12.90;;;10.77;;
45326;SDS011;31062;49.678;24.560;2023-05-18T03:22:30;13.63;;;10.38;;
45326;SDS011;31062;49.678;24.560;2023-05-18T03:25:15;13.35;;;9.98;;
45326;SDS011;31062;49.678;24.560;2023-05-18T03:28:01;12.07;;;10.65;;
45326;SDS011;31062;49.678;24.560;2023-05-18T03:30:50;12.73;;;9.68;;
45326;SDS011;31062;49.678;24.560;2023-05-18T03:33:35;11.70;;;10.50;;
45326;SDS011;31062;49.678;24.560;2023-05-18T03:36:21;13.40;;;9.75;;
45326;SDS011;31062;49.678;24.560;2023-05-18T03:39:06;10.38;;;9.13;;
45326;SDS011;31062;49.678;24.560;2023-05-18T03:41:52;9.40;;;8.45;;
45326;SDS011;31062;49.678;24.560;2023-05-18T03:44:38;10.63;;;8.75;;
45326;SDS011;31062;49.678;24.560;2023-05-18T03:47:23;10.45;;;8.55;;
45326;SDS011;31062;49.678;24.560;2023-05-18T03:50:09;11.00;;;9.73;;
45326;SDS011;31062;49.678;24.560;2023-05-18T03:52:55;10.75;;;9.35;;
45326;SDS011;31062;49.678;24.560;2023-05-18T03:55:40;10.07;;;8.90;;
45326;SDS011;31062;49.678;24.560;2023-05-18T03:58:27;10.20;;;9.15;;
45326;SDS011;31062;49.678;24.560;2023-05-18T04:01:14;16.83;;;12.15;;
45326;SDS011;31062;49.678;24.560;2023-05-18T04:04:03;18.92;;;13.55;;
45326;SDS011;31062;49.678;24.560;2023-05-18T04:06:49;17.15;;;13.38;;
45326;SDS011;31062;49.678;24.560;2023-05-18T04:09:38;17.67;;;12.10;;
45326;SDS011;31062;49.678;24.560;2023-05-18T04:12:23;15.55;;;10.50;;
45326;SDS011;31062;49.678;24.560;2023-05-18T04:15:10;13.02;;;9.45;;
45326;SDS011;31062;49.678;24.560;2023-05-18T04:17:59;9.95;;;8.95;;
45326;SDS011;31062;49.678;24.560;2023-05-18T04:20:45;11.23;;;9.82;;
45326;SDS011;31062;49.678;24.560;2023-05-18T04:23:31;17.25;;;12.10;;
45326;SDS011;31062;49.678;24.560;2023-05-18T04:26:23;19.17;;;15.07;;
45326;SDS011;31062;49.678;24.560;2023-05-18T04:29:08;21.23;;;15.55;;
45326;SDS011;31062;49.678;24.560;2023-05-18T04:31:55;21.63;;;16.38;;
45326;SDS011;31062;49.678;24.560;2023-05-18T04:34:45;24.45;;;16.80;;
45326;SDS011;31062;49.678;24.560;2023-05-18T04:37:34;25.42;;;15.95;;
45326;SDS011;31062;49.678;24.560;2023-05-18T04:40:20;23.88;;;16.95;;
45326;SDS011;31062;49.678;24.560;2023-05-18T04:43:08;29.13;;;18.98;;
45326;SDS011;31062;49.678;24.560;2023-05-18T04:45:54;23.92;;;16.63;;
45326;SDS011;31062;49.678;24.560;2023-05-18T04:48:42;27.35;;;18.40;;
45326;SDS011;31062;49.678;24.560;2023-05-18T04:51:28;24.80;;;16.50;;
45326;SDS011;31062;49.678;24.560;2023-05-18T04:54:15;24.73;;;16.80;;
45326;SDS011;31062;49.678;24.560;2023-05-18T04:57:01;22.40;;;14.77;;
45326;SDS011;31062;49.678;24.560;2023-05-18T04:59:47;25.10;;;17.33;;
45326;SDS011;31062;49.678;24.560;2023-05-18T05:02:33;24.30;;;17.30;;
45326;SDS011;31062;49.678;24.560;2023-05-18T05:05:19;24.15;;;15.27;;
45326;SDS011;31062;49.678;24.560;2023-05-18T05:08:05;24.00;;;16.30;;
45326;SDS011;31062;49.678;24.560;2023-05-18T05:10:51;24.90;;;15.63;;
45326;SDS011;31062;49.678;24.560;2023-05-18T05:13:36;20.10;;;15.40;;
45326;SDS011;31062;49.678;24.560;2023-05-18T05:16:22;18.35;;;14.55;;
45326;SDS011;31062;49.678;24.560;2023-05-18T05:19:07;22.23;;;17.13;;
45326;SDS011;31062;49.678;24.560;2023-05-18T05:21:53;23.27;;;15.85;;
45326;SDS011;31062;49.678;24.560;2023-05-18T05:24:39;25.17;;;17.40;;
45326;SDS011;31062;49.678;24.560;2023-05-18T05:27:24;24.13;;;16.92;;
45326;SDS011;31062;49.678;24.560;2023-05-18T05:30:10;18.17;;;14.07;;
45326;SDS011;31062;49.678;24.560;2023-05-18T05:32:58;18.42;;;14.00;;
45326;SDS011;31062;49.678;24.560;2023-05-18T05:35:45;18.75;;;13.85;;
45326;SDS011;31062;49.678;24.560;2023-05-18T05:38:31;18.55;;;13.55;;
45326;SDS011;31062;49.678;24.560;2023-05-18T05:41:17;14.77;;;11.90;;
45326;SDS011;31062;49.678;24.560;2023-05-18T05:44:03;14.82;;;12.55;;
45326;SDS011;31062;49.678;24.560;2023-05-18T05:46:48;21.17;;;12.80;;
45326;SDS011;31062;49.678;24.560;2023-05-18T05:49:35;18.08;;;13.95;;
45326;SDS011;31062;49.678;24.560;2023-05-18T05:52:21;18.95;;;12.27;;
45326;SDS011;31062;49.678;24.560;2023-05-18T05:55:06;15.85;;;11.80;;
45326;SDS011;31062;49.678;24.560;2023-05-18T05:57:53;13.15;;;10.48;;
45326;SDS011;31062;49.678;24.560;2023-05-18T06:00:39;16.50;;;12.60;;
45326;SDS011;31062;49.678;24.560;2023-05-18T06:03:25;12.55;;;10.07;;
45326;SDS011;31062;49.678;24.560;2023-05-18T06:06:12;10.20;;;9.10;;
45326;SDS011;31062;49.678;24.560;2023-05-18T06:08:58;13.27;;;10.70;;
45326;SDS011;31062;49.678;24.560;2023-05-18T06:11:43;14.70;;;12.18;;
45326;SDS011;31062;49.678;24.560;2023-05-18T06:14:29;16.23;;;13.18;;
45326;SDS011;31062;49.678;24.560;2023-05-18T06:17:15;24.55;;;15.65;;
45326;SDS011;31062;49.678;24.560;2023-05-18T06:20:01;19.63;;;15.57;;
45326;SDS011;31062;49.678;24.560;2023-05-18T06:22:48;19.83;;;16.38;;
45326;SDS011;31062;49.678;24.560;2023-05-18T06:26:02;20.38;;;16.10;;
45326;SDS011;31062;49.678;24.560;2023-05-18T06:28:48;22.33;;;17.15;;
45326;SDS011;31062;49.678;24.560;2023-05-18T06:31:57;22.20;;;17.30;;
45326;SDS011;31062;49.678;24.560;2023-05-18T06:34:55;23.05;;;18.20;;
45326;SDS011;31062;49.678;24.560;2023-05-18T06:37:40;19.23;;;16.15;;
45326;SDS011;31062;49.678;24.560;2023-05-18T06:40:27;24.27;;;15.90;;
45326;SDS011;31062;49.678;24.560;2023-05-18T06:43:12;21.50;;;17.15;;
45326;SDS011;31062;49.678;24.560;2023-05-18T06:46:06;21.40;;;15.82;;
45326;SDS011;31062;49.678;24.560;2023-05-18T06:48:57;21.95;;;16.05;;
45326;SDS011;31062;49.678;24.560;2023-05-18T06:51:42;20.38;;;15.70;;
45326;SDS011;31062;49.678;24.560;2023-05-18T06:54:28;23.73;;;17.65;;
45326;SDS011;31062;49.678;24.560;2023-05-18T06:57:16;19.00;;;15.85;;
45326;SDS011;31062;49.678;24.560;2023-05-18T07:00:02;20.85;;;16.83;;
45326;SDS011;31062;49.678;24.560;2023-05-18T07:02:51;28.00;;;20.42;;
45326;SDS011;31062;49.678;24.560;2023-05-18T07:05:38;36.17;;;25.08;;
45326;SDS011;31062;49.678;24.560;2023-05-18T07:08:24;71.85;;;40.13;;
45326;SDS011;31062;49.678;24.560;2023-05-18T07:11:09;56.13;;;33.97;;
45326;SDS011;31062;49.678;24.560;2023-05-18T07:13:55;60.42;;;34.10;;
45326;SDS011;31062;49.678;24.560;2023-05-18T07:16:40;54.42;;;33.05;;
45326;SDS011;31062;49.678;24.560;2023-05-18T07:19:27;54.50;;;32.65;;
45326;SDS011;31062;49.678;24.560;2023-05-18T07:22:13;41.03;;;26.48;;
45326;SDS011;31062;49.678;24.560;2023-05-18T07:24:58;44.08;;;26.63;;
45326;SDS011;31062;49.678;24.560;2023-05-18T07:27:45;42.67;;;26.65;;
45326;SDS011;31062;49.678;24.560;2023-05-18T07:30:30;35.53;;;25.52;;
45326;SDS011;31062;49.678;24.560;2023-05-18T07:33:16;38.00;;;24.67;;
45326;SDS011;31062;49.678;24.560;2023-05-18T07:36:02;40.50;;;23.77;;
45326;SDS011;31062;49.678;24.560;2023-05-18T07:38:47;36.45;;;23.33;;
45326;SDS011;31062;49.678;24.560;2023-05-18T07:41:38;34.58;;;22.38;;
45326;SDS011;31062;49.678;24.560;2023-05-18T07:44:24;32.65;;;22.17;;
45326;SDS011;31062;49.678;24.560;2023-05-18T07:47:09;36.53;;;24.20;;
45326;SDS011;31062;49.678;24.560;2023-05-18T07:49:55;34.28;;;22.60;;
45326;SDS011;31062;49.678;24.560;2023-05-18T07:52:41;34.72;;;24.00;;
45326;SDS011;31062;49.678;24.560;2023-05-18T07:55:26;38.70;;;25.83;;
45326;SDS011;31062;49.678;24.560;2023-05-18T07:58:11;34.85;;;22.27;;
45326;SDS011;31062;49.678;24.560;2023-05-18T08:00:57;34.38;;;22.15;;
45326;SDS011;31062;49.678;24.560;2023-05-18T08:03:43;35.83;;;23.55;;
45326;SDS011;31062;49.678;24.560;2023-05-18T08:06:29;32.20;;;23.42;;
45326;SDS011;31062;49.678;24.560;2023-05-18T08:09:14;39.05;;;24.17;;
45326;SDS011;31062;49.678;24.560;2023-05-18T08:12:00;34.63;;;22.80;;
45326;SDS011;31062;49.678;24.560;2023-05-18T08:14:45;38.38;;;23.63;;
45326;SDS011;31062;49.678;24.560;2023-05-18T08:17:30;32.53;;;22.35;;
45326;SDS011;31062;49.678;24.560;2023-05-18T08:20:16;36.45;;;21.75;;
45326;SDS011;31062;49.678;24.560;2023-05-18T08:23:02;32.47;;;22.80;;
45326;SDS011;31062;49.678;24.560;2023-05-18T08:25:47;42.70;;;24.08;;
45326;SDS011;31062;49.678;24.560;2023-05-18T08:28:32;32.00;;;22.05;;
45326;SDS011;31062;49.678;24.560;2023-05-18T08:31:18;35.15;;;22.88;;
45326;SDS011;31062;49.678;24.560;2023-05-18T08:34:04;33.92;;;22.50;;
45326;SDS011;31062;49.678;24.560;2023-05-18T08:36:50;28.35;;;20.42;;
45326;SDS011;31062;49.678;24.560;2023-05-18T08:39:36;32.35;;;20.50;;
45326;SDS011;31062;49.678;24.560;2023-05-18T08:42:27;35.13;;;21.58;;
45326;SDS011;31062;49.678;24.560;2023-05-18T08:45:40;31.50;;;21.85;;
45326;SDS011;31062;49.678;24.560;2023-05-18T08:48:32;25.67;;;20.27;;
45326;SDS011;31062;49.678;24.560;2023-05-18T08:51:20;28.75;;;21.67;;
45326;SDS011;31062;49.678;24.560;2023-05-18T08:54:06;26.95;;;21.38;;
45326;SDS011;31062;49.678;24.560;2023-05-18T08:56:54;26.67;;;18.42;;
45326;SDS011;31062;49.678;24.560;2023-05-18T08:59:41;24.90;;;16.45;;
45326;SDS011;31062;49.678;24.560;2023-05-18T09:02:30;17.88;;;14.10;;
45326;SDS011;31062;49.678;24.560;2023-05-18T09:05:17;13.80;;;12.10;;
45326;SDS011;31062;49.678;24.560;2023-05-18T09:08:05;11.45;;;10.35;;
45326;SDS011;31062;49.678;24.560;2023-05-18T09:10:51;13.82;;;12.40;;
45326;SDS011;31062;49.678;24.560;2023-05-18T09:13:43;13.73;;;12.27;;
45326;SDS011;31062;49.678;24.560;2023-05-18T09:16:28;12.85;;;11.30;;
45326;SDS011;31062;49.678;24.560;2023-05-18T09:19:14;14.15;;;10.57;;
45326;SDS011;31062;49.678;24.560;2023-05-18T09:22:00;15.63;;;10.98;;
45326;SDS011;31062;49.678;24.560;2023-05-18T09:24:46;13.13;;;11.02;;
45326;SDS011;31062;49.678;24.560;2023-05-18T09:27:33;19.98;;;11.63;;
45326;SDS011;31062;49.678;24.560;2023-05-18T09:30:18;15.00;;;11.60;;
45326;SDS011;31062;49.678;24.560;2023-05-18T09:33:03;13.32;;;10.88;;
45326;SDS011;31062;49.678;24.560;2023-05-18T09:35:49;12.60;;;10.27;;
45326;SDS011;31062;49.678;24.560;2023-05-18T09:38:36;17.55;;;11.93;;
45326;SDS011;31062;49.678;24.560;2023-05-18T09:41:24;19.48;;;15.18;;
45326;SDS011;31062;49.678;24.560;2023-05-18T09:44:11;22.80;;;16.45;;
45326;SDS011;31062;49.678;24.560;2023-05-18T09:46:56;28.92;;;17.77;;
45326;SDS011;31062;49.678;24.560;2023-05-18T09:49:42;25.20;;;18.20;;
45326;SDS011;31062;49.678;24.560;2023-05-18T09:52:27;26.08;;;18.40;;
45326;SDS011;31062;49.678;24.560;2023-05-18T09:55:17;23.00;;;18.60;;
45326;SDS011;31062;49.678;24.560;2023-05-18T09:58:05;25.50;;;18.52;;
45326;SDS011;31062;49.678;24.560;2023-05-18T10:00:52;24.33;;;17.45;;
45326;SDS011;31062;49.678;24.560;2023-05-18T10:03:41;27.15;;;17.67;;
45326;SDS011;31062;49.678;24.560;2023-05-18T10:06:29;16.80;;;14.02;;
45326;SDS011;31062;49.678;24.560;2023-05-18T10:09:15;20.90;;;14.85;;
45326;SDS011;31062;49.678;24.560;2023-05-18T10:12:01;19.15;;;14.77;;
45326;SDS011;31062;49.678;24.560;2023-05-18T10:14:47;16.85;;;13.43;;
45326;SDS011;31062;49.678;24.560;2023-05-18T10:17:33;14.35;;;12.27;;
45326;SDS011;31062;49.678;24.560;2023-05-18T10:20:22;13.73;;;12.10;;
45326;SDS011;31062;49.678;24.560;2023-05-18T10:23:08;17.52;;;13.65;;
45326;SDS011;31062;49.678;24.560;2023-05-18T10:25:55;21.13;;;15.32;;
45326;SDS011;31062;49.678;24.560;2023-05-18T10:28:43;19.13;;;14.88;;
45326;SDS011;31062;49.678;24.560;2023-05-18T10:31:31;20.50;;;14.50;;
45326;SDS011;31062;49.678;24.560;2023-05-18T10:34:21;19.80;;;14.60;;
45326;SDS011;31062;49.678;24.560;2023-05-18T10:37:08;19.20;;;13.25;;
45326;SDS011;31062;49.678;24.560;2023-05-18T10:39:57;16.90;;;13.52;;
45326;SDS011;31062;49.678;24.560;2023-05-18T10:42:44;17.75;;;14.52;;
45326;SDS011;31062;49.678;24.560;2023-05-18T10:45:33;16.13;;;13.98;;
45326;SDS011;31062;49.678;24.560;2023-05-18T10:48:20;18.50;;;14.73;;
45326;SDS011;31062;49.678;24.560;2023-05-18T10:51:07;24.40;;;16.15;;
45326;SDS011;31062;49.678;24.560;2023-05-18T10:53:53;17.95;;;12.90;;
45326;SDS011;31062;49.678;24.560;2023-05-18T10:56:42;18.95;;;14.55;;
45326;SDS011;31062;49.678;24.560;2023-05-18T10:59:31;16.77;;;13.05;;
45326;SDS011;31062;49.678;24.560;2023-05-18T11:02:17;15.55;;;12.70;;
45326;SDS011;31062;49.678;24.560;2023-05-18T11:05:05;15.38;;;12.73;;
45326;SDS011;31062;49.678;24.560;2023-05-18T11:07:58;10.00;;;8.57;;
45326;SDS011;31062;49.678;24.560;2023-05-18T11:10:50;9.23;;;7.93;;
45326;SDS011;31062;49.678;24.560;2023-05-18T11:13:47;7.18;;;6.47;;
45326;SDS011;31062;49.678;24.560;2023-05-18T11:16:34;6.15;;;5.57;;
45326;SDS011;31062;49.678;24.560;2023-05-18T11:19:23;7.05;;;5.85;;
45326;SDS011;31062;49.678;24.560;2023-05-18T11:22:10;6.28;;;5.10;;
45326;SDS011;31062;49.678;24.560;2023-05-18T11:24:56;6.10;;;4.70;;
45326;SDS011;31062;49.678;24.560;2023-05-18T11:27:42;5.30;;;4.78;;
45326;SDS011;31062;49.678;24.560;2023-05-18T11:30:29;7.88;;;4.53;;
45326;SDS011;31062;49.678;24.560;2023-05-18T11:33:29;4.47;;;3.92;;
45326;SDS011;31062;49.678;24.560;2023-05-18T11:36:18;5.88;;;4.35;;
45326;SDS011;31062;49.678;24.560;2023-05-18T11:39:07;5.30;;;4.03;;
45326;SDS011;31062;49.678;24.560;2023-05-18T11:44:52;5.65;;;4.95;;
45326;SDS011;31062;49.678;24.560;2023-05-18T11:47:40;5.35;;;4.85;;
45326;SDS011;31062;49.678;24.560;2023-05-18T11:50:26;6.60;;;4.95;;
45326;SDS011;31062;49.678;24.560;2023-05-18T11:53:15;4.60;;;4.20;;
45326;SDS011;31062;49.678;24.560;2023-05-18T11:56:01;5.20;;;4.70;;
45326;SDS011;31062;49.678;24.560;2023-05-18T11:58:50;5.95;;;4.53;;
45326;SDS011;31062;49.678;24.560;2023-05-18T12:01:58;3.78;;;3.47;;
45326;SDS011;31062;49.678;24.560;2023-05-18T12:04:46;3.70;;;3.25;;
45326;SDS011;31062;49.678;24.560;2023-05-18T12:07:34;7.45;;;3.60;;
45326;SDS011;31062;49.678;24.560;2023-05-18T12:10:21;6.78;;;3.22;;
45326;SDS011;31062;49.678;24.560;2023-05-18T12:13:07;3.60;;;3.30;;
45326;SDS011;31062;49.678;24.560;2023-05-18T12:15:54;6.45;;;3.67;;
45326;SDS011;31062;49.678;24.560;2023-05-18T12:18:49;4.03;;;3.45;;
45326;SDS011;31062;49.678;24.560;2023-05-18T12:21:36;4.65;;;4.13;;
45326;SDS011;31062;49.678;24.560;2023-05-18T12:24:22;5.82;;;4.78;;
45326;SDS011;31062;49.678;24.560;2023-05-18T12:27:08;4.28;;;3.92;;
45326;SDS011;31062;49.678;24.560;2023-05-18T12:29:55;5.28;;;4.43;;
45326;SDS011;31062;49.678;24.560;2023-05-18T12:32:45;4.55;;;4.15;;
45326;SDS011;31062;49.678;24.560;2023-05-18T12:35:32;7.13;;;5.00;;
45326;SDS011;31062;49.678;24.560;2023-05-18T12:38:18;5.63;;;4.85;;
45326;SDS011;31062;49.678;24.560;2023-05-18T12:41:04;4.95;;;4.30;;
45326;SDS011;31062;49.678;24.560;2023-05-18T12:43:51;4.63;;;4.22;;
45326;SDS011;31062;49.678;24.560;2023-05-18T12:46:40;4.32;;;3.92;;
45326;SDS011;31062;49.678;24.560;2023-05-18T12:49:27;3.92;;;3.53;;
45326;SDS011;31062;49.678;24.560;2023-05-18T12:52:13;7.00;;;4.43;;
45326;SDS011;31062;49.678;24.560;2023-05-18T12:55:01;4.72;;;3.88;;
45326;SDS011;31062;49.678;24.560;2023-05-18T13:00:46;3.40;;;3.10;;
45326;SDS011;31062;49.678;24.560;2023-05-18T13:03:32;3.88;;;3.28;;
45326;SDS011;31062;49.678;24.560;2023-05-18T13:06:19;3.03;;;2.80;;
45326;SDS011;31062;49.678;24.560;2023-05-18T13:09:06;3.50;;;3.28;;
45326;SDS011;31062;49.678;24.560;2023-05-18T13:11:58;6.25;;;3.42;;
45326;SDS011;31062;49.678;24.560;2023-05-18T13:14:52;3.67;;;3.00;;
45326;SDS011;31062;49.678;24.560;2023-05-18T13:17:38;7.40;;;3.70;;
45326;SDS011;31062;49.678;24.560;2023-05-18T13:20:43;4.93;;;3.83;;
45326;SDS011;31062;49.678;24.560;2023-05-18T13:23:37;3.38;;;3.08;;
45326;SDS011;31062;49.678;24.560;2023-05-18T13:26:23;4.57;;;2.97;;
45326;SDS011;31062;49.678;24.560;2023-05-18T13:29:09;4.45;;;2.53;;
45326;SDS011;31062;49.678;24.560;2023-05-18T13:31:55;3.33;;;2.80;;
45326;SDS011;31062;49.678;24.560;2023-05-18T13:34:41;2.65;;;2.45;;
45326;SDS011;31062;49.678;24.560;2023-05-18T13:37:27;3.70;;;2.45;;
45326;SDS011;31062;49.678;24.560;2023-05-18T13:40:12;2.40;;;2.20;;
45326;SDS011;31062;49.678;24.560;2023-05-18T13:42:58;2.72;;;2.53;;
45326;SDS011;31062;49.678;24.560;2023-05-18T13:45:44;2.95;;;2.75;;
45326;SDS011;31062;49.678;24.560;2023-05-18T13:48:31;5.93;;;2.75;;
45326;SDS011;31062;49.678;24.560;2023-05-18T13:51:16;3.72;;;3.42;;
45326;SDS011;31062;49.678;24.560;2023-05-18T13:54:02;2.63;;;2.42;;
45326;SDS011;31062;49.678;24.560;2023-05-18T13:56:48;3.35;;;2.40;;
45326;SDS011;31062;49.678;24.560;2023-05-18T13:59:34;2.40;;;2.20;;
45326;SDS011;31062;49.678;24.560;2023-05-18T14:02:19;2.80;;;2.38;;
45326;SDS011;31062;49.678;24.560;2023-05-18T14:05:06;3.08;;;2.80;;
45326;SDS011;31062;49.678;24.560;2023-05-18T14:07:55;3.03;;;2.72;;
45326;SDS011;31062;49.678;24.560;2023-05-18T14:10:41;2.25;;;2.10;;
45326;SDS011;31062;49.678;24.560;2023-05-18T14:13:26;2.72;;;2.53;;
45326;SDS011;31062;49.678;24.560;2023-05-18T14:16:12;3.08;;;2.78;;
45326;SDS011;31062;49.678;24.560;2023-05-18T14:18:57;3.15;;;2.88;;
45326;SDS011;31062;49.678;24.560;2023-05-18T14:21:43;2.88;;;2.67;;
45326;SDS011;31062;49.678;24.560;2023-05-18T14:24:28;3.25;;;2.97;;
45326;SDS011;31062;49.678;24.560;2023-05-18T14:27:13;2.88;;;2.65;;
45326;SDS011;31062;49.678;24.560;2023-05-18T14:31:34;2.83;;;2.63;;
45326;SDS011;31062;49.678;24.560;2023-05-18T14:34:20;2.90;;;2.67;;
45326;SDS011;31062;49.678;24.560;2023-05-18T14:37:06;3.17;;;2.88;;
45326;SDS011;31062;49.678;24.560;2023-05-18T14:39:51;3.45;;;3.15;;
45326;SDS011;31062;49.678;24.560;2023-05-18T14:42:37;4.55;;;3.42;;
45326;SDS011;31062;49.678;24.560;2023-05-18T14:45:22;5.20;;;3.10;;
45326;SDS011;31062;49.678;24.560;2023-05-18T14:48:08;6.15;;;3.25;;
45326;SDS011;31062;49.678;24.560;2023-05-18T14:50:55;3.72;;;3.40;;
45326;SDS011;31062;49.678;24.560;2023-05-18T14:53:40;4.20;;;3.70;;
45326;SDS011;31062;49.678;24.560;2023-05-18T14:56:28;5.07;;;3.38;;
45326;SDS011;31062;49.678;24.560;2023-05-18T14:59:14;4.38;;;3.70;;
45326;SDS011;31062;49.678;24.560;2023-05-18T15:01:59;4.38;;;3.75;;
45326;SDS011;31062;49.678;24.560;2023-05-18T15:04:45;4.07;;;3.35;;
45326;SDS011;31062;49.678;24.560;2023-05-18T15:07:30;3.85;;;3.55;;
45326;SDS011;31062;49.678;24.560;2023-05-18T15:10:15;4.35;;;3.28;;
45326;SDS011;31062;49.678;24.560;2023-05-18T15:13:01;4.50;;;3.60;;
45326;SDS011;31062;49.678;24.560;2023-05-18T15:15:47;6.18;;;2.92;;
45326;SDS011;31062;49.678;24.560;2023-05-18T15:18:33;3.00;;;2.70;;
45326;SDS011;31062;49.678;24.560;2023-05-18T15:21:19;7.53;;;2.92;;
45326;SDS011;31062;49.678;24.560;2023-05-18T15:24:04;3.42;;;3.13;;
45326;SDS011;31062;49.678;24.560;2023-05-18T15:26:50;3.70;;;3.40;;
45326;SDS011;31062;49.678;24.560;2023-05-18T15:29:35;4.60;;;3.78;;
45326;SDS011;31062;49.678;24.560;2023-05-18T15:32:21;4.40;;;3.28;;
45326;SDS011;31062;49.678;24.560;2023-05-18T15:35:08;3.20;;;2.90;;
45326;SDS011;31062;49.678;24.560;2023-05-18T15:37:54;4.40;;;3.40;;
45326;SDS011;31062;49.678;24.560;2023-05-18T15:40:40;4.35;;;3.95;;
45326;SDS011;31062;49.678;24.560;2023-05-18T15:43:30;4.75;;;3.60;;
45326;SDS011;31062;49.678;24.560;2023-05-18T15:46:17;4.13;;;3.67;;
45326;SDS011;31062;49.678;24.560;2023-05-18T15:49:02;6.03;;;4.07;;
45326;SDS011;31062;49.678;24.560;2023-05-18T15:51:48;5.10;;;4.03;;
45326;SDS011;31062;49.678;24.560;2023-05-18T15:54:33;6.00;;;4.05;;
45326;SDS011;31062;49.678;24.560;2023-05-18T15:57:20;4.40;;;3.75;;
45326;SDS011;31062;49.678;24.560;2023-05-18T16:00:06;5.78;;;3.70;;
45326;SDS011;31062;49.678;24.560;2023-05-18T16:02:59;6.07;;;3.58;;
45326;SDS011;31062;49.678;24.560;2023-05-18T16:05:44;7.55;;;3.97;;
45326;SDS011;31062;49.678;24.560;2023-05-18T16:08:30;4.93;;;3.88;;
45326;SDS011;31062;49.678;24.560;2023-05-18T16:11:16;3.88;;;3.22;;
45326;SDS011;31062;49.678;24.560;2023-05-18T16:14:03;3.38;;;3.08;;
45326;SDS011;31062;49.678;24.560;2023-05-18T16:16:49;4.18;;;3.78;;
45326;SDS011;31062;49.678;24.560;2023-05-18T16:19:35;9.68;;;3.92;;
45326;SDS011;31062;49.678;24.560;2023-05-18T16:22:21;7.85;;;5.10;;
45326;SDS011;31062;49.678;24.560;2023-05-18T16:25:07;5.55;;;3.70;;
45326;SDS011;31062;49.678;24.560;2023-05-18T16:27:53;3.75;;;3.45;;
45326;SDS011;31062;49.678;24.560;2023-05-18T16:30:39;4.70;;;4.20;;